createdAt,value
2023-04-09T00:00:47.356Z,12.55
2023-04-09T00:03:04.432Z,12.43
2023-04-09T00:05:21.424Z,16.48
2023-04-09T00:07:38.416Z,11.93
2023-04-09T00:09:56.692Z,12.77
2023-04-09T00:12:13.922Z,11.85
2023-04-09T00:14:30.987Z,13.30
2023-04-09T00:16:48.042Z,13.77
2023-04-09T00:19:04.954Z,11.55
2023-04-09T00:21:21.987Z,11.75
2023-04-09T00:23:39.352Z,14.70
2023-04-09T00:25:56.399Z,14.57
2023-04-09T00:28:13.300Z,13.60
2023-04-09T00:30:30.578Z,12.77
2023-04-09T00:32:48.892Z,14.63
2023-04-09T00:35:06.338Z,11.43
2023-04-09T00:37:23.645Z,16.75
2023-04-09T00:39:40.598Z,14.48
2023-04-09T00:41:58.749Z,13.20
2023-04-09T00:44:16.001Z,13.07
2023-04-09T00:46:32.990Z,12.93
2023-04-09T00:48:50.652Z,13.68
2023-04-09T00:51:08.190Z,14.05
2023-04-09T00:53:25.143Z,12.50
2023-04-09T00:55:42.116Z,11.77
2023-04-09T00:58:00.057Z,12.45
2023-04-09T01:00:17.003Z,10.20
2023-04-09T01:02:34.070Z,14.57
2023-04-09T01:04:51.092Z,10.70
2023-04-09T01:07:08.109Z,14.13
2023-04-09T01:09:26.228Z,10.82
2023-04-09T01:11:43.277Z,11.82
2023-04-09T01:14:00.616Z,12.20
2023-04-09T01:16:17.931Z,13.05
2023-04-09T01:18:34.889Z,11.02
2023-04-09T01:20:56.348Z,11.43
2023-04-09T01:23:13.677Z,9.60
2023-04-09T01:25:31.961Z,10.23
2023-04-09T01:27:49.293Z,10.60
2023-04-09T01:30:06.323Z,10.45
2023-04-09T01:32:23.334Z,11.50
2023-04-09T01:34:40.399Z,11.75
2023-04-09T01:36:57.753Z,11.20
2023-04-09T01:39:14.805Z,11.32
2023-04-09T01:41:31.864Z,11.70
2023-04-09T01:43:48.779Z,12.88
2023-04-09T01:46:06.121Z,10.57
2023-04-09T01:48:23.096Z,11.23
2023-04-09T01:50:40.452Z,10.70
2023-04-09T01:52:58.491Z,12.25
2023-04-09T01:55:15.522Z,16.23
2023-04-09T01:57:32.584Z,12.65
2023-04-09T01:59:50.934Z,10.48
2023-04-09T02:02:08.302Z,10.32
2023-04-09T02:04:25.691Z,10.73
2023-04-09T02:06:42.978Z,11.85
2023-04-09T02:08:59.945Z,12.68
2023-04-09T02:11:17.062Z,11.20
2023-04-09T02:13:34.133Z,10.73
2023-04-09T02:15:51.160Z,9.82
2023-04-09T02:18:09.233Z,14.00
2023-04-09T02:20:26.290Z,11.35
2023-04-09T02:22:44.223Z,9.75
2023-04-09T02:25:01.487Z,11.52
2023-04-09T02:27:18.444Z,9.48
2023-04-09T02:29:35.749Z,10.05
2023-04-09T02:31:52.829Z,10.38
2023-04-09T02:34:09.901Z,9.75
2023-04-09T02:36:27.169Z,11.73
2023-04-09T02:38:44.207Z,10.80
2023-04-09T02:41:01.210Z,11.20
2023-04-09T02:43:18.298Z,11.32
2023-04-09T02:45:35.374Z,11.23
2023-04-09T02:47:52.482Z,10.30
2023-04-09T02:50:09.650Z,10.70
2023-04-09T02:52:26.604Z,14.38
2023-04-09T02:54:43.932Z,10.02
2023-04-09T02:57:01.073Z,11.15
2023-04-09T02:59:18.454Z,9.77
2023-04-09T03:01:35.811Z,10.45
2023-04-09T03:03:52.833Z,10.02
2023-04-09T03:06:10.207Z,10.07
2023-04-09T03:08:27.270Z,11.82
2023-04-09T03:10:44.613Z,9.82
2023-04-09T03:13:01.530Z,9.45
2023-04-09T03:15:19.503Z,10.32
2023-04-09T03:17:36.723Z,9.90
2023-04-09T03:19:54.060Z,9.43
2023-04-09T03:22:11.121Z,10.02
2023-04-09T03:24:28.082Z,11.48
2023-04-09T03:26:45.013Z,10.52
2023-04-09T03:29:02.363Z,9.73
2023-04-09T03:31:19.677Z,14.00
2023-04-09T03:33:37.045Z,11.77
2023-04-09T03:35:54.302Z,10.95
2023-04-09T03:38:11.274Z,11.82
2023-04-09T03:40:28.220Z,12.52
2023-04-09T03:42:45.316Z,10.43
2023-04-09T03:45:02.436Z,10.70
2023-04-09T03:47:19.614Z,12.60
2023-04-09T03:49:36.655Z,12.07
2023-04-09T03:51:53.932Z,13.18
2023-04-09T03:54:12.052Z,12.52
2023-04-09T03:56:29.360Z,10.07
2023-04-09T03:58:46.432Z,11.10
2023-04-09T04:01:03.446Z,13.23
2023-04-09T04:03:20.915Z,9.95
2023-04-09T04:05:37.902Z,11.38
2023-04-09T04:07:55.238Z,12.07
2023-04-09T04:10:12.245Z,10.35
2023-04-09T04:12:29.285Z,9.32
2023-04-09T04:14:46.494Z,11.30
2023-04-09T04:17:04.686Z,9.38
2023-04-09T04:19:21.686Z,8.35
2023-04-09T04:21:38.636Z,9.80
2023-04-09T04:23:55.670Z,8.13
2023-04-09T04:26:12.569Z,10.77
2023-04-09T04:28:29.775Z,10.13
2023-04-09T04:30:46.714Z,13.65
2023-04-09T04:33:03.722Z,12.38
2023-04-09T04:35:20.597Z,12.65
2023-04-09T04:37:37.787Z,17.83
2023-04-09T04:39:54.717Z,11.55
2023-04-09T04:42:11.985Z,12.57
2023-04-09T04:44:29.891Z,12.07
2023-04-09T04:46:46.808Z,11.88
2023-04-09T04:49:03.742Z,11.07
2023-04-09T04:51:20.684Z,10.55
2023-04-09T04:53:37.552Z,10.40
2023-04-09T04:55:54.445Z,10.00
2023-04-09T04:58:11.373Z,14.10
2023-04-09T05:00:28.413Z,9.98
2023-04-09T05:02:45.764Z,12.50
2023-04-09T05:05:02.828Z,11.38
2023-04-09T05:07:19.851Z,13.90
2023-04-09T05:09:36.815Z,10.57
2023-04-09T05:11:53.722Z,11.32
2023-04-09T05:14:11.015Z,11.52
2023-04-09T05:16:27.939Z,11.80
2023-04-09T05:18:44.989Z,10.57
2023-04-09T05:21:01.840Z,10.43
2023-04-09T05:23:18.752Z,13.18
2023-04-09T05:25:35.787Z,10.45
2023-04-09T05:27:52.856Z,12.70
2023-04-09T05:30:10.168Z,13.23
2023-04-09T05:32:27.238Z,12.77
2023-04-09T05:34:44.158Z,11.38
2023-04-09T05:37:01.409Z,11.90
2023-04-09T05:39:18.374Z,10.85
2023-04-09T05:41:35.438Z,11.68
2023-04-09T05:43:52.817Z,10.18
2023-04-09T05:46:10.183Z,12.68
2023-04-09T05:48:27.542Z,13.27
2023-04-09T05:50:54.067Z,11.50
2023-04-09T05:53:12.225Z,13.43
2023-04-09T05:55:29.314Z,13.30
2023-04-09T05:57:46.239Z,11.82
2023-04-09T06:00:03.235Z,11.25
2023-04-09T06:02:20.441Z,11.90
2023-04-09T06:04:37.653Z,15.05
2023-04-09T06:06:54.766Z,13.70
2023-04-09T06:09:11.771Z,12.00
2023-04-09T06:11:28.711Z,11.00
2023-04-09T06:13:45.966Z,11.35
2023-04-09T06:16:03.069Z,10.75
2023-04-09T06:18:20.113Z,9.73
2023-04-09T06:20:37.247Z,11.07
2023-04-09T06:22:54.527Z,12.88
2023-04-09T06:25:11.710Z,13.15
2023-04-09T06:27:28.691Z,12.88
2023-04-09T06:29:45.708Z,13.05
2023-04-09T06:32:02.996Z,12.25
2023-04-09T06:34:21.224Z,11.50
2023-04-09T06:36:38.244Z,11.13
2023-04-09T06:38:55.254Z,13.30
2023-04-09T06:41:12.471Z,12.13
2023-04-09T06:43:29.527Z,10.75
2023-04-09T06:45:46.517Z,13.88
2023-04-09T06:48:03.603Z,14.40
2023-04-09T06:50:21.717Z,13.90
2023-04-09T06:52:38.784Z,14.10
2023-04-09T06:54:55.779Z,13.05
2023-04-09T06:57:13.258Z,12.57
2023-04-09T06:59:30.532Z,13.15
2023-04-09T07:01:47.830Z,13.88
2023-04-09T07:04:04.994Z,12.52
2023-04-09T07:06:22.083Z,12.52
2023-04-09T07:08:39.312Z,13.82
2023-04-09T07:10:56.631Z,11.45
2023-04-09T07:13:13.867Z,12.35
2023-04-09T07:15:31.168Z,13.98
2023-04-09T07:17:49.229Z,14.50
2023-04-09T07:20:06.522Z,13.20
2023-04-09T07:22:23.535Z,13.20
2023-04-09T07:24:40.571Z,13.15
2023-04-09T07:26:57.488Z,16.48
2023-04-09T07:29:14.377Z,15.85
2023-04-09T07:31:34.592Z,16.13
2023-04-09T07:33:52.937Z,17.63
2023-04-09T07:36:10.072Z,17.40
2023-04-09T07:38:27.349Z,20.42
2023-04-09T07:40:45.439Z,20.90
2023-04-09T07:43:02.575Z,18.77
2023-04-09T07:45:19.776Z,19.70
2023-04-09T07:47:36.727Z,18.42
2023-04-09T07:49:53.667Z,19.02
2023-04-09T07:52:10.563Z,19.90
2023-04-09T07:54:27.760Z,18.98
2023-04-09T07:56:44.763Z,20.88
2023-04-09T07:59:01.798Z,21.80
2023-04-09T08:01:18.857Z,19.77
2023-04-09T08:03:35.840Z,21.25
2023-04-09T08:05:53.222Z,23.23
2023-04-09T08:08:10.280Z,22.70
2023-04-09T08:10:28.199Z,21.25
2023-04-09T08:12:45.134Z,19.88
2023-04-09T08:15:03.094Z,22.10
2023-04-09T08:17:19.996Z,18.67
2023-04-09T08:19:38.296Z,20.60
2023-04-09T08:21:56.170Z,21.35
2023-04-09T08:24:13.237Z,22.30
2023-04-09T08:26:30.246Z,20.63
2023-04-09T08:28:47.266Z,19.55
2023-04-09T08:31:04.370Z,22.38
2023-04-09T08:33:21.256Z,21.23
2023-04-09T08:35:38.289Z,21.60
2023-04-09T08:37:55.369Z,20.10
2023-04-09T08:40:13.646Z,21.15
2023-04-09T08:42:30.975Z,19.52
2023-04-09T08:44:47.964Z,19.50
2023-04-09T08:47:05.322Z,20.88
2023-04-09T08:49:23.184Z,20.13
2023-04-09T08:51:40.251Z,19.48
2023-04-09T08:53:57.561Z,18.60
2023-04-09T08:56:14.489Z,22.33
2023-04-09T08:58:31.516Z,19.77
2023-04-09T09:00:48.386Z,23.33
2023-04-09T09:03:05.571Z,22.13
2023-04-09T09:05:22.720Z,18.80
2023-04-09T09:07:40.708Z,19.98
2023-04-09T09:09:57.602Z,22.67
2023-04-09T09:12:14.591Z,24.52
2023-04-09T09:14:31.674Z,21.00
2023-04-09T09:16:48.770Z,19.40
2023-04-09T09:19:06.655Z,21.00
2023-04-09T09:21:23.589Z,38.60
2023-04-09T09:23:40.878Z,27.15
2023-04-09T09:25:58.841Z,16.45
2023-04-09T09:28:16.076Z,15.60
2023-04-09T09:30:33.599Z,15.70
2023-04-09T09:32:50.991Z,16.25
2023-04-09T09:35:07.998Z,15.27
2023-04-09T09:37:25.214Z,16.27
2023-04-09T09:39:42.279Z,13.20
2023-04-09T09:42:00.297Z,11.55
2023-04-09T09:44:17.331Z,11.50
2023-04-09T09:46:34.675Z,11.45
2023-04-09T09:48:53.302Z,12.02
2023-04-09T09:51:10.865Z,12.45
2023-04-09T09:53:28.090Z,12.40
2023-04-09T09:55:46.331Z,11.15
2023-04-09T09:58:03.255Z,14.05
2023-04-09T10:00:21.082Z,12.38
2023-04-09T10:02:39.696Z,14.38
2023-04-09T10:04:56.611Z,12.00
2023-04-09T10:07:13.822Z,12.00
2023-04-09T10:09:30.729Z,10.63
2023-04-09T10:11:48.022Z,12.30
2023-04-09T10:14:04.956Z,11.05
2023-04-09T10:16:22.005Z,11.60
2023-04-09T10:18:38.974Z,11.60
2023-04-09T10:20:56.017Z,10.73
2023-04-09T10:23:14.215Z,12.82
2023-04-09T10:25:31.202Z,10.90
2023-04-09T10:27:48.450Z,10.25
2023-04-09T10:30:05.438Z,11.60
2023-04-09T10:32:22.814Z,11.40
2023-04-09T10:34:40.081Z,16.25
2023-04-09T10:36:57.422Z,11.48
2023-04-09T10:39:14.640Z,20.13
2023-04-09T10:41:31.578Z,14.32
2023-04-09T10:43:48.529Z,11.80
2023-04-09T10:46:05.508Z,14.10
2023-04-09T10:48:22.583Z,14.48
2023-04-09T10:50:39.555Z,9.80
2023-04-09T10:52:56.621Z,13.00
2023-04-09T10:55:13.695Z,11.27
2023-04-09T10:57:31.574Z,14.38
2023-04-09T10:59:48.616Z,10.77
2023-04-09T11:02:05.567Z,11.63
2023-04-09T11:04:23.000Z,13.05
2023-04-09T11:06:40.066Z,14.50
2023-04-09T11:08:57.372Z,13.07
2023-04-09T11:11:14.290Z,12.95
2023-04-09T11:13:31.309Z,13.52
2023-04-09T11:15:48.434Z,12.00
2023-04-09T11:18:05.589Z,11.27
2023-04-09T11:20:22.671Z,10.07
2023-04-09T11:22:39.584Z,10.45
2023-04-09T11:24:56.438Z,11.75
2023-04-09T11:27:13.469Z,11.25
2023-04-09T11:29:30.323Z,8.60
2023-04-09T11:31:47.816Z,10.82
2023-04-09T11:34:04.780Z,10.00
2023-04-09T11:36:21.762Z,11.57
2023-04-09T11:38:38.884Z,12.18
2023-04-09T11:40:55.883Z,11.63
2023-04-09T11:43:12.835Z,10.77
2023-04-09T11:45:29.862Z,10.25
2023-04-09T11:47:46.924Z,9.98
2023-04-09T11:50:03.953Z,11.90
2023-04-09T11:52:21.006Z,9.63
2023-04-09T11:54:38.007Z,9.45
2023-04-09T11:56:55.048Z,11.50
2023-04-09T11:59:12.150Z,12.80
2023-04-09T12:01:29.188Z,11.98
2023-04-09T12:03:46.242Z,13.07
2023-04-09T12:06:03.482Z,11.48
2023-04-09T12:08:21.096Z,10.82
2023-04-09T12:10:38.103Z,11.38
2023-04-09T12:12:56.087Z,10.07
2023-04-09T12:15:13.129Z,10.13
2023-04-09T12:17:30.098Z,10.23
2023-04-09T12:19:46.987Z,9.38
2023-04-09T12:22:04.197Z,9.02
2023-04-09T12:24:21.461Z,9.57
2023-04-09T12:26:38.722Z,9.32
2023-04-09T12:28:57.034Z,10.68
2023-04-09T12:31:15.370Z,8.45
2023-04-09T12:33:32.643Z,11.25
2023-04-09T12:35:50.745Z,9.75
2023-04-09T12:38:07.735Z,9.85
2023-04-09T12:40:24.690Z,9.25
2023-04-09T12:42:41.741Z,10.07
2023-04-09T12:44:58.663Z,10.48
2023-04-09T12:47:15.568Z,9.75
2023-04-09T12:49:32.765Z,10.27
2023-04-09T12:51:50.782Z,9.45
2023-04-09T12:54:08.002Z,9.80
2023-04-09T12:56:25.230Z,9.15
2023-04-09T12:58:42.145Z,8.90
2023-04-09T13:00:59.139Z,8.10
2023-04-09T13:03:16.179Z,9.23
2023-04-09T13:05:33.323Z,8.40
2023-04-09T13:07:50.340Z,7.90
2023-04-09T13:10:07.593Z,7.57
2023-04-09T13:12:24.682Z,7.32
2023-04-09T13:14:41.694Z,8.25
2023-04-09T13:16:58.627Z,9.10
2023-04-09T13:19:15.702Z,8.27
2023-04-09T13:21:33.002Z,8.68
2023-04-09T13:23:50.033Z,8.88
2023-04-09T13:26:07.093Z,9.27
2023-04-09T13:28:24.068Z,9.90
2023-04-09T13:30:41.202Z,9.48
2023-04-09T13:32:59.240Z,8.18
2023-04-09T13:35:16.228Z,8.35
2023-04-09T13:37:33.294Z,9.52
2023-04-09T13:39:51.402Z,8.20
2023-04-09T13:42:13.589Z,8.13
2023-04-09T13:44:31.254Z,8.40
2023-04-09T13:46:48.332Z,8.63
2023-04-09T13:49:05.552Z,9.32
2023-04-09T13:51:22.557Z,9.02
2023-04-09T13:53:39.549Z,8.68
2023-04-09T13:55:56.533Z,7.38
2023-04-09T13:58:13.870Z,8.02
2023-04-09T14:00:30.890Z,7.28
2023-04-09T14:02:47.989Z,7.68
2023-04-09T14:05:05.094Z,8.05
2023-04-09T14:07:22.421Z,7.97
2023-04-09T14:09:40.639Z,8.27
2023-04-09T14:11:58.906Z,7.88
2023-04-09T14:14:16.207Z,7.07
2023-04-09T14:16:33.425Z,8.60
2023-04-09T14:18:50.785Z,8.30
2023-04-09T14:21:09.972Z,7.45
2023-04-09T14:23:27.460Z,7.35
2023-04-09T14:25:44.529Z,8.15
2023-04-09T14:28:01.565Z,8.00
2023-04-09T14:30:18.883Z,7.82
2023-04-09T14:32:35.940Z,7.05
2023-04-09T14:34:53.327Z,7.72
2023-04-09T14:37:10.298Z,8.25
2023-04-09T14:39:27.637Z,8.77
2023-04-09T14:41:44.553Z,9.70
2023-04-09T14:44:01.634Z,8.43
2023-04-09T14:46:18.920Z,8.77
2023-04-09T14:48:36.187Z,8.93
2023-04-09T14:50:54.190Z,7.82
2023-04-09T14:53:11.492Z,8.98
2023-04-09T14:55:28.383Z,7.75
2023-04-09T14:57:46.372Z,7.90
2023-04-09T15:00:03.454Z,8.68
2023-04-09T15:02:20.716Z,9.13
2023-04-09T15:04:38.009Z,9.07
2023-04-09T15:06:55.098Z,9.05
2023-04-09T15:09:11.993Z,9.15
2023-04-09T15:11:28.929Z,11.90
2023-04-09T15:13:46.206Z,8.52
2023-04-09T15:16:03.310Z,9.20
2023-04-09T15:18:21.745Z,9.95
2023-04-09T15:20:38.835Z,9.00
2023-04-09T15:22:55.898Z,10.23
2023-04-09T15:25:14.367Z,9.85
2023-04-09T15:27:31.853Z,10.10
2023-04-09T15:29:48.807Z,8.82
2023-04-09T15:32:05.883Z,9.10
2023-04-09T15:34:23.840Z,8.38
2023-04-09T15:36:40.899Z,8.77
2023-04-09T15:38:58.093Z,8.75
2023-04-09T15:41:14.978Z,9.35
2023-04-09T15:43:32.848Z,9.60
2023-04-09T15:45:49.843Z,7.85
2023-04-09T15:48:07.201Z,9.02
2023-04-09T15:50:24.144Z,9.45
2023-04-09T15:52:41.013Z,12.77
2023-04-09T15:54:58.214Z,8.55
2023-04-09T15:57:15.220Z,8.93
2023-04-09T15:59:32.146Z,7.53
2023-04-09T16:01:49.295Z,8.48
2023-04-09T16:04:06.393Z,7.45
2023-04-09T16:06:24.561Z,7.97
2023-04-09T16:08:41.794Z,6.60
2023-04-09T16:10:58.980Z,7.85
2023-04-09T16:13:16.039Z,8.75
2023-04-09T16:15:32.986Z,7.00
2023-04-09T16:17:49.986Z,7.90
2023-04-09T16:20:07.272Z,7.82
2023-04-09T16:22:24.291Z,7.55
2023-04-09T16:24:41.468Z,7.72
2023-04-09T16:26:58.489Z,7.57
2023-04-09T16:29:15.553Z,7.47
2023-04-09T16:31:33.513Z,8.32
2023-04-09T16:33:50.762Z,8.00
2023-04-09T16:36:07.756Z,10.95
2023-04-09T16:38:25.069Z,8.48
2023-04-09T16:40:43.185Z,9.23
2023-04-09T16:43:00.249Z,7.90
2023-04-09T16:45:17.160Z,7.90
2023-04-09T16:47:34.257Z,9.00
2023-04-09T16:49:51.652Z,8.32
2023-04-09T16:52:08.916Z,8.48
2023-04-09T16:54:26.170Z,8.45
2023-04-09T16:56:43.144Z,7.38
2023-04-09T16:59:00.226Z,8.23
2023-04-09T17:01:17.653Z,6.45
2023-04-09T17:03:34.715Z,7.60
2023-04-09T17:05:51.770Z,8.80
2023-04-09T17:08:08.716Z,6.82
2023-04-09T17:10:26.644Z,7.20
2023-04-09T17:12:43.500Z,6.65
2023-04-09T17:15:00.547Z,7.50
2023-04-09T17:17:17.564Z,7.25
2023-04-09T17:19:34.966Z,7.10
2023-04-09T17:21:51.930Z,5.72
2023-04-09T17:24:08.894Z,6.13
2023-04-09T17:26:26.934Z,6.70
2023-04-09T17:28:44.077Z,6.97
2023-04-09T17:31:01.423Z,6.38
2023-04-09T17:33:18.358Z,7.13
2023-04-09T17:35:35.445Z,6.53
2023-04-09T17:37:52.570Z,6.25
2023-04-09T17:40:09.657Z,17.73
2023-04-09T17:42:26.721Z,18.65
2023-04-09T17:44:43.871Z,20.63
2023-04-09T17:47:01.109Z,20.13
2023-04-09T17:49:19.445Z,18.08
2023-04-09T17:51:36.504Z,13.18
2023-04-09T17:53:53.572Z,10.98
2023-04-09T17:56:10.591Z,9.23
2023-04-09T17:58:27.475Z,9.10
2023-04-09T18:00:44.417Z,8.18
2023-04-09T18:03:02.701Z,6.95
2023-04-09T18:05:20.404Z,6.72
2023-04-09T18:07:37.449Z,8.63
2023-04-09T18:09:54.483Z,10.80
2023-04-09T18:12:11.745Z,12.07
2023-04-09T18:14:29.015Z,7.32
2023-04-09T18:16:45.986Z,47.30
2023-04-09T18:19:02.916Z,33.55
2023-04-09T18:21:19.956Z,35.03
2023-04-09T18:23:37.260Z,41.13
2023-04-09T18:25:54.563Z,37.90
2023-04-09T18:28:11.806Z,36.45
2023-04-09T18:30:29.061Z,24.90
2023-04-09T18:32:47.165Z,22.85
2023-04-09T18:35:04.541Z,16.13
2023-04-09T18:37:21.825Z,11.02
2023-04-09T18:39:38.851Z,10.98
2023-04-09T18:41:55.788Z,11.98
2023-04-09T18:44:12.790Z,13.32
2023-04-09T18:46:29.675Z,9.82
2023-04-09T18:48:46.963Z,10.10
2023-04-09T18:51:03.947Z,8.45
2023-04-09T18:53:21.210Z,7.28
2023-04-09T18:55:38.567Z,8.52
2023-04-09T18:57:55.494Z,8.20
2023-04-09T19:00:12.437Z,13.52
2023-04-09T19:02:29.739Z,18.65
2023-04-09T19:04:47.045Z,22.70
2023-04-09T19:07:04.147Z,19.20
2023-04-09T19:09:21.146Z,19.85
2023-04-09T19:11:38.195Z,16.58
2023-04-09T19:13:55.106Z,10.63
2023-04-09T19:16:12.423Z,10.52
2023-04-09T19:18:29.452Z,11.88
2023-04-09T19:20:46.741Z,12.32
2023-04-09T19:23:03.817Z,10.35
2023-04-09T19:25:20.779Z,10.75
2023-04-09T19:27:37.794Z,8.90
2023-04-09T19:29:54.703Z,8.55
2023-04-09T19:32:11.782Z,11.00
2023-04-09T19:34:28.984Z,12.25
2023-04-09T19:36:46.313Z,11.82
2023-04-09T19:39:04.314Z,11.75
2023-04-09T19:41:22.258Z,11.13
2023-04-09T19:43:39.516Z,9.93
2023-04-09T19:45:56.623Z,8.48
2023-04-09T19:48:13.668Z,9.38
2023-04-09T19:50:30.591Z,10.10
2023-04-09T19:52:47.506Z,10.00
2023-04-09T19:55:04.592Z,11.35
2023-04-09T19:57:21.884Z,10.65
2023-04-09T19:59:39.151Z,10.98
2023-04-09T20:01:56.578Z,10.52
2023-04-09T20:04:13.627Z,13.00
2023-04-09T20:06:30.915Z,10.93
2023-04-09T20:08:47.909Z,9.75
2023-04-09T20:11:04.950Z,10.70
2023-04-09T20:13:22.052Z,9.57
2023-04-09T20:15:39.356Z,11.45
2023-04-09T20:17:56.602Z,11.07
2023-04-09T20:20:13.935Z,12.05
2023-04-09T20:22:30.854Z,9.68
2023-04-09T20:24:47.854Z,7.90
2023-04-09T20:27:04.744Z,10.57
2023-04-09T20:29:21.952Z,9.68
2023-04-09T20:31:39.344Z,9.50
2023-04-09T20:33:56.269Z,9.07
2023-04-09T20:36:13.521Z,9.10
2023-04-09T20:38:30.600Z,9.05
2023-04-09T20:40:47.902Z,9.18
2023-04-09T20:43:05.116Z,10.18
2023-04-09T20:45:22.389Z,10.10
2023-04-09T20:47:39.455Z,9.57
2023-04-09T20:49:56.484Z,9.30
2023-04-09T20:52:13.687Z,11.02
2023-04-09T20:54:30.749Z,10.73
2023-04-09T20:56:48.755Z,12.68
2023-04-09T20:59:05.786Z,10.65
2023-04-09T21:01:22.714Z,11.15
2023-04-09T21:03:39.929Z,8.82
2023-04-09T21:05:57.582Z,8.95
2023-04-09T21:08:14.923Z,10.05
2023-04-09T21:10:32.230Z,11.32
2023-04-09T21:12:49.165Z,10.45
2023-04-09T21:15:07.401Z,11.55
2023-04-09T21:17:24.495Z,11.20
2023-04-09T21:19:41.560Z,8.60
2023-04-09T21:21:58.866Z,9.77
2023-04-09T21:24:15.788Z,10.23
2023-04-09T21:26:48.691Z,10.35
2023-04-09T21:29:06.735Z,11.18
2023-04-09T21:31:24.209Z,12.98
2023-04-09T21:33:41.257Z,13.15
2023-04-09T21:35:58.236Z,10.27
2023-04-09T21:38:15.191Z,10.02
2023-04-09T21:40:32.145Z,10.20
2023-04-09T21:42:49.090Z,10.63
2023-04-09T21:45:06.087Z,10.70
2023-04-09T21:47:23.177Z,9.80
2023-04-09T21:49:40.777Z,10.63
2023-04-09T21:51:57.972Z,11.02
2023-04-09T21:54:15.265Z,10.13
2023-04-09T21:56:32.352Z,10.35
2023-04-09T21:58:49.408Z,10.85
2023-04-09T22:01:13.043Z,10.82
2023-04-09T22:03:36.573Z,9.95
2023-04-09T22:05:54.055Z,11.15
2023-04-09T22:08:11.349Z,10.93
2023-04-09T22:10:28.405Z,10.27
2023-04-09T22:12:46.047Z,11.15
2023-04-09T22:15:04.060Z,12.90
2023-04-09T22:17:21.018Z,13.18
2023-04-09T22:19:37.922Z,12.05
2023-04-09T22:21:55.150Z,12.05
2023-04-09T22:24:13.129Z,11.55
2023-04-09T22:26:30.385Z,11.77
2023-04-09T22:28:48.297Z,12.18
2023-04-09T22:31:05.659Z,11.85
2023-04-09T22:33:22.864Z,12.43
2023-04-09T22:35:40.057Z,11.95
2023-04-09T22:37:58.239Z,13.50
2023-04-09T22:40:15.578Z,14.00
2023-04-09T22:42:32.798Z,12.68
2023-04-09T22:44:49.735Z,12.27
2023-04-09T22:47:06.773Z,13.48
2023-04-09T22:49:24.075Z,12.45
2023-04-09T22:51:41.851Z,13.50
2023-04-09T22:53:58.917Z,10.60
2023-04-09T22:56:15.960Z,12.27
2023-04-09T22:58:33.043Z,11.95
2023-04-09T23:00:50.298Z,13.68
2023-04-09T23:03:07.802Z,15.43
2023-04-09T23:05:25.205Z,13.38
2023-04-09T23:07:42.155Z,12.13
2023-04-09T23:09:59.172Z,12.65
2023-04-09T23:12:16.109Z,14.13
2023-04-09T23:14:33.078Z,11.88
2023-04-09T23:16:50.304Z,11.52
2023-04-09T23:19:07.622Z,11.80
2023-04-09T23:21:24.635Z,11.18
2023-04-09T23:23:41.694Z,11.70
2023-04-09T23:25:58.703Z,15.63
2023-04-09T23:28:15.959Z,12.38
2023-04-09T23:30:32.870Z,15.15
2023-04-09T23:32:49.768Z,10.63
2023-04-09T23:35:06.711Z,14.00
2023-04-09T23:37:23.575Z,11.90
2023-04-09T23:39:40.468Z,11.25
2023-04-09T23:41:57.349Z,11.50
2023-04-09T23:44:14.634Z,11.13
2023-04-09T23:46:31.679Z,11.35
2023-04-09T23:48:48.951Z,14.32
2023-04-09T23:51:05.889Z,12.35
2023-04-09T23:53:22.980Z,17.42
2023-04-09T23:55:40.913Z,15.13
2023-04-09T23:57:58.283Z,14.75
